sensor_id;sensor_type;location;lat;lon;timestamp;temperature;humidity
57660;DHT22;43485;45.680;15.702;2023-07-20T00:01:24;22.20;81.40
57660;DHT22;43485;45.680;15.702;2023-07-20T00:03:49;22.20;81.80
57660;DHT22;43485;45.680;15.702;2023-07-20T00:09:06;22.30;80.80
57660;DHT22;43485;45.680;15.702;2023-07-20T00:11:35;22.30;80.50
57660;DHT22;43485;45.680;15.702;2023-07-20T00:14:02;22.40;80.70
57660;DHT22;43485;45.680;15.702;2023-07-20T00:16:28;22.30;81.10
57660;DHT22;43485;45.680;15.702;2023-07-20T00:18:53;22.30;82.00
57660;DHT22;43485;45.680;15.702;2023-07-20T00:21:19;22.30;80.90
57660;DHT22;43485;45.680;15.702;2023-07-20T00:23:45;22.30;81.10
57660;DHT22;43485;45.680;15.702;2023-07-20T00:26:11;22.30;80.40
57660;DHT22;43485;45.680;15.702;2023-07-20T00:28:37;22.40;80.20
57660;DHT22;43485;45.680;15.702;2023-07-20T00:31:04;22.50;79.70
57660;DHT22;43485;45.680;15.702;2023-07-20T00:33:30;22.50;79.20
57660;DHT22;43485;45.680;15.702;2023-07-20T00:35:56;22.60;78.50
57660;DHT22;43485;45.680;15.702;2023-07-20T00:38:22;22.70;78.60
57660;DHT22;43485;45.680;15.702;2023-07-20T00:40:48;22.80;78.10
57660;DHT22;43485;45.680;15.702;2023-07-20T00:43:14;22.80;77.80
57660;DHT22;43485;45.680;15.702;2023-07-20T00:45:40;22.70;77.30
57660;DHT22;43485;45.680;15.702;2023-07-20T00:48:07;22.70;77.10
57660;DHT22;43485;45.680;15.702;2023-07-20T00:50:33;22.80;77.40
57660;DHT22;43485;45.680;15.702;2023-07-20T00:53:00;22.80;77.10
57660;DHT22;43485;45.680;15.702;2023-07-20T00:55:30;22.80;77.10
57660;DHT22;43485;45.680;15.702;2023-07-20T00:57:56;22.80;76.70
57660;DHT22;43485;45.680;15.702;2023-07-20T01:00:23;22.80;77.10
57660;DHT22;43485;45.680;15.702;2023-07-20T01:02:50;22.80;77.00
57660;DHT22;43485;45.680;15.702;2023-07-20T01:05:16;22.80;76.80
57660;DHT22;43485;45.680;15.702;2023-07-20T01:07:46;22.80;76.70
57660;DHT22;43485;45.680;15.702;2023-07-20T01:13:20;22.80;76.30
57660;DHT22;43485;45.680;15.702;2023-07-20T01:18:32;22.80;76.10
57660;DHT22;43485;45.680;15.702;2023-07-20T01:24:05;22.80;75.90
57660;DHT22;43485;45.680;15.702;2023-07-20T01:30:16;22.80;75.80
57660;DHT22;43485;45.680;15.702;2023-07-20T01:33:06;22.80;75.70
57660;DHT22;43485;45.680;15.702;2023-07-20T01:35:33;22.80;75.50
57660;DHT22;43485;45.680;15.702;2023-07-20T01:38:00;22.70;75.50
57660;DHT22;43485;45.680;15.702;2023-07-20T01:40:26;22.80;75.50
57660;DHT22;43485;45.680;15.702;2023-07-20T01:42:52;22.80;75.50
57660;DHT22;43485;45.680;15.702;2023-07-20T01:45:18;22.70;75.60
57660;DHT22;43485;45.680;15.702;2023-07-20T01:47:45;22.80;75.40
57660;DHT22;43485;45.680;15.702;2023-07-20T01:50:10;22.70;75.20
57660;DHT22;43485;45.680;15.702;2023-07-20T01:52:36;22.80;75.10
57660;DHT22;43485;45.680;15.702;2023-07-20T01:55:02;22.70;75.00
57660;DHT22;43485;45.680;15.702;2023-07-20T01:57:29;22.80;74.70
57660;DHT22;43485;45.680;15.702;2023-07-20T01:59:55;22.80;74.20
57660;DHT22;43485;45.680;15.702;2023-07-20T02:02:23;22.80;74.80
57660;DHT22;43485;45.680;15.702;2023-07-20T02:04:51;22.70;74.80
57660;DHT22;43485;45.680;15.702;2023-07-20T02:07:17;22.70;74.70
57660;DHT22;43485;45.680;15.702;2023-07-20T02:09:43;22.70;74.60
57660;DHT22;43485;45.680;15.702;2023-07-20T02:12:09;22.60;74.30
57660;DHT22;43485;45.680;15.702;2023-07-20T02:14:35;22.50;74.40
57660;DHT22;43485;45.680;15.702;2023-07-20T02:17:01;22.50;74.40
57660;DHT22;43485;45.680;15.702;2023-07-20T02:19:27;22.50;74.30
57660;DHT22;43485;45.680;15.702;2023-07-20T02:21:53;22.40;74.10
57660;DHT22;43485;45.680;15.702;2023-07-20T02:24:19;22.40;74.10
57660;DHT22;43485;45.680;15.702;2023-07-20T02:26:45;22.40;73.80
57660;DHT22;43485;45.680;15.702;2023-07-20T02:29:11;22.40;74.60
57660;DHT22;43485;45.680;15.702;2023-07-20T02:31:37;22.40;73.60
57660;DHT22;43485;45.680;15.702;2023-07-20T02:36:49;22.30;73.30
57660;DHT22;43485;45.680;15.702;2023-07-20T02:39:15;22.30;73.40
57660;DHT22;43485;45.680;15.702;2023-07-20T02:41:41;22.10;73.70
57660;DHT22;43485;45.680;15.702;2023-07-20T02:44:07;22.00;73.50
57660;DHT22;43485;45.680;15.702;2023-07-20T02:46:33;22.00;74.20
57660;DHT22;43485;45.680;15.702;2023-07-20T02:49:00;21.80;74.60
57660;DHT22;43485;45.680;15.702;2023-07-20T02:51:26;21.80;74.90
57660;DHT22;43485;45.680;15.702;2023-07-20T02:53:52;21.70;74.70
57660;DHT22;43485;45.680;15.702;2023-07-20T02:56:18;21.80;74.60
57660;DHT22;43485;45.680;15.702;2023-07-20T02:58:44;21.80;74.60
57660;DHT22;43485;45.680;15.702;2023-07-20T03:01:11;21.80;74.50
57660;DHT22;43485;45.680;15.702;2023-07-20T03:03:37;21.70;74.60
57660;DHT22;43485;45.680;15.702;2023-07-20T03:08:49;21.60;74.60
57660;DHT22;43485;45.680;15.702;2023-07-20T03:11:17;21.60;74.60
57660;DHT22;43485;45.680;15.702;2023-07-20T03:13:44;21.60;74.50
57660;DHT22;43485;45.680;15.702;2023-07-20T03:16:10;21.50;74.70
57660;DHT22;43485;45.680;15.702;2023-07-20T03:18:38;21.50;74.90
57660;DHT22;43485;45.680;15.702;2023-07-20T03:21:04;21.50;75.40
57660;DHT22;43485;45.680;15.702;2023-07-20T03:23:31;21.40;75.90
57660;DHT22;43485;45.680;15.702;2023-07-20T03:25:57;21.40;76.00
57660;DHT22;43485;45.680;15.702;2023-07-20T03:28:23;21.30;76.10
57660;DHT22;43485;45.680;15.702;2023-07-20T03:33:34;21.30;76.20
57660;DHT22;43485;45.680;15.702;2023-07-20T03:36:00;21.30;76.20
57660;DHT22;43485;45.680;15.702;2023-07-20T03:38:26;21.30;76.60
57660;DHT22;43485;45.680;15.702;2023-07-20T03:40:53;21.30;76.30
57660;DHT22;43485;45.680;15.702;2023-07-20T03:43:21;21.30;76.20
57660;DHT22;43485;45.680;15.702;2023-07-20T03:45:48;21.30;76.20
57660;DHT22;43485;45.680;15.702;2023-07-20T03:50:59;21.30;76.10
57660;DHT22;43485;45.680;15.702;2023-07-20T03:53:43;21.20;76.10
57660;DHT22;43485;45.680;15.702;2023-07-20T03:56:09;21.30;76.30
57660;DHT22;43485;45.680;15.702;2023-07-20T03:58:35;21.30;76.20
57660;DHT22;43485;45.680;15.702;2023-07-20T04:01:02;21.30;76.20
57660;DHT22;43485;45.680;15.702;2023-07-20T04:03:28;21.30;76.00
57660;DHT22;43485;45.680;15.702;2023-07-20T04:05:54;21.30;76.40
57660;DHT22;43485;45.680;15.702;2023-07-20T04:08:22;21.30;76.00
57660;DHT22;43485;45.680;15.702;2023-07-20T04:10:48;21.30;76.20
57660;DHT22;43485;45.680;15.702;2023-07-20T04:13:14;21.30;76.00
57660;DHT22;43485;45.680;15.702;2023-07-20T04:15:41;21.20;75.80
57660;DHT22;43485;45.680;15.702;2023-07-20T04:18:08;21.30;75.50
57660;DHT22;43485;45.680;15.702;2023-07-20T04:20:34;21.30;75.40
57660;DHT22;43485;45.680;15.702;2023-07-20T04:22:59;21.30;75.60
57660;DHT22;43485;45.680;15.702;2023-07-20T04:25:25;21.20;75.60
57660;DHT22;43485;45.680;15.702;2023-07-20T04:27:51;21.30;75.40
57660;DHT22;43485;45.680;15.702;2023-07-20T04:30:18;21.30;75.10
57660;DHT22;43485;45.680;15.702;2023-07-20T04:32:46;21.30;75.00
57660;DHT22;43485;45.680;15.702;2023-07-20T04:35:16;21.30;74.70
57660;DHT22;43485;45.680;15.702;2023-07-20T04:38:02;21.40;74.60
57660;DHT22;43485;45.680;15.702;2023-07-20T04:40:28;21.40;74.60
57660;DHT22;43485;45.680;15.702;2023-07-20T04:42:54;21.40;74.40
57660;DHT22;43485;45.680;15.702;2023-07-20T04:45:20;21.50;74.50
57660;DHT22;43485;45.680;15.702;2023-07-20T04:47:48;21.50;74.40
57660;DHT22;43485;45.680;15.702;2023-07-20T04:50:16;21.60;74.30
57660;DHT22;43485;45.680;15.702;2023-07-20T04:52:42;21.70;74.20
57660;DHT22;43485;45.680;15.702;2023-07-20T04:55:08;21.70;73.90
57660;DHT22;43485;45.680;15.702;2023-07-20T04:57:34;21.70;73.80
57660;DHT22;43485;45.680;15.702;2023-07-20T05:00:00;21.70;73.90
57660;DHT22;43485;45.680;15.702;2023-07-20T05:02:26;21.80;74.00
57660;DHT22;43485;45.680;15.702;2023-07-20T05:04:52;21.80;74.00
57660;DHT22;43485;45.680;15.702;2023-07-20T05:07:18;21.80;74.00
57660;DHT22;43485;45.680;15.702;2023-07-20T05:09:44;21.90;73.90
57660;DHT22;43485;45.680;15.702;2023-07-20T05:12:10;21.80;74.10
57660;DHT22;43485;45.680;15.702;2023-07-20T05:14:37;21.90;74.40
57660;DHT22;43485;45.680;15.702;2023-07-20T05:17:04;21.90;74.20
57660;DHT22;43485;45.680;15.702;2023-07-20T05:19:30;21.90;73.50
57660;DHT22;43485;45.680;15.702;2023-07-20T05:21:56;22.10;74.10
57660;DHT22;43485;45.680;15.702;2023-07-20T05:24:22;22.10;73.90
57660;DHT22;43485;45.680;15.702;2023-07-20T05:26:48;22.20;73.60
57660;DHT22;43485;45.680;15.702;2023-07-20T05:29:14;22.30;73.50
57660;DHT22;43485;45.680;15.702;2023-07-20T05:31:41;22.40;73.30
57660;DHT22;43485;45.680;15.702;2023-07-20T05:34:06;22.40;73.10
57660;DHT22;43485;45.680;15.702;2023-07-20T05:36:32;22.50;73.00
57660;DHT22;43485;45.680;15.702;2023-07-20T05:38:58;22.60;72.80
57660;DHT22;43485;45.680;15.702;2023-07-20T05:41:24;22.60;72.70
57660;DHT22;43485;45.680;15.702;2023-07-20T05:43:50;22.70;72.60
57660;DHT22;43485;45.680;15.702;2023-07-20T05:46:16;22.80;72.30
57660;DHT22;43485;45.680;15.702;2023-07-20T05:48:42;22.80;72.00
57660;DHT22;43485;45.680;15.702;2023-07-20T05:51:08;22.90;72.10
57660;DHT22;43485;45.680;15.702;2023-07-20T05:53:35;23.00;72.20
57660;DHT22;43485;45.680;15.702;2023-07-20T05:56:01;23.00;71.80
57660;DHT22;43485;45.680;15.702;2023-07-20T05:58:28;23.10;71.40
57660;DHT22;43485;45.680;15.702;2023-07-20T06:00:54;23.20;71.10
57660;DHT22;43485;45.680;15.702;2023-07-20T06:03:20;23.30;70.80
57660;DHT22;43485;45.680;15.702;2023-07-20T06:05:49;23.40;70.60
57660;DHT22;43485;45.680;15.702;2023-07-20T06:08:15;23.40;70.40
57660;DHT22;43485;45.680;15.702;2023-07-20T06:10:40;23.50;70.00
57660;DHT22;43485;45.680;15.702;2023-07-20T06:13:06;23.60;69.20
57660;DHT22;43485;45.680;15.702;2023-07-20T06:15:32;23.70;69.00
57660;DHT22;43485;45.680;15.702;2023-07-20T06:18:00;23.80;68.10
57660;DHT22;43485;45.680;15.702;2023-07-20T06:20:26;23.90;67.90
57660;DHT22;43485;45.680;15.702;2023-07-20T06:22:52;24.00;67.20
57660;DHT22;43485;45.680;15.702;2023-07-20T06:25:18;24.10;66.70
57660;DHT22;43485;45.680;15.702;2023-07-20T06:27:46;24.20;66.20
57660;DHT22;43485;45.680;15.702;2023-07-20T06:30:12;24.40;65.70
57660;DHT22;43485;45.680;15.702;2023-07-20T06:32:38;24.50;65.10
57660;DHT22;43485;45.680;15.702;2023-07-20T06:35:04;24.60;63.90
57660;DHT22;43485;45.680;15.702;2023-07-20T06:37:31;24.80;63.70
57660;DHT22;43485;45.680;15.702;2023-07-20T06:39:58;25.00;63.20
57660;DHT22;43485;45.680;15.702;2023-07-20T06:42:24;25.20;61.80
57660;DHT22;43485;45.680;15.702;2023-07-20T06:44:50;25.40;61.70
57660;DHT22;43485;45.680;15.702;2023-07-20T06:47:15;25.40;62.00
57660;DHT22;43485;45.680;15.702;2023-07-20T06:49:41;25.30;60.60
57660;DHT22;43485;45.680;15.702;2023-07-20T06:52:27;25.30;60.40
57660;DHT22;43485;45.680;15.702;2023-07-20T06:54:53;25.40;60.70
57660;DHT22;43485;45.680;15.702;2023-07-20T06:57:19;25.50;60.30
57660;DHT22;43485;45.680;15.702;2023-07-20T06:59:45;25.70;59.50
57660;DHT22;43485;45.680;15.702;2023-07-20T07:02:11;25.80;58.90
57660;DHT22;43485;45.680;15.702;2023-07-20T07:04:37;25.90;58.00
57660;DHT22;43485;45.680;15.702;2023-07-20T07:07:03;26.00;57.40
57660;DHT22;43485;45.680;15.702;2023-07-20T07:09:29;26.10;55.10
57660;DHT22;43485;45.680;15.702;2023-07-20T07:11:55;26.30;56.10
57660;DHT22;43485;45.680;15.702;2023-07-20T07:14:21;26.40;55.20
57660;DHT22;43485;45.680;15.702;2023-07-20T07:16:47;26.60;54.80
57660;DHT22;43485;45.680;15.702;2023-07-20T07:19:13;26.60;53.50
57660;DHT22;43485;45.680;15.702;2023-07-20T07:21:39;26.40;54.90
57660;DHT22;43485;45.680;15.702;2023-07-20T07:24:05;26.40;55.10
57660;DHT22;43485;45.680;15.702;2023-07-20T07:26:33;26.20;54.50
57660;DHT22;43485;45.680;15.702;2023-07-20T07:28:58;26.30;55.30
57660;DHT22;43485;45.680;15.702;2023-07-20T07:31:25;26.30;55.00
57660;DHT22;43485;45.680;15.702;2023-07-20T07:33:51;26.40;54.50
57660;DHT22;43485;45.680;15.702;2023-07-20T07:36:17;26.60;54.60
57660;DHT22;43485;45.680;15.702;2023-07-20T07:38:43;26.70;54.50
57660;DHT22;43485;45.680;15.702;2023-07-20T07:41:09;26.70;53.90
57660;DHT22;43485;45.680;15.702;2023-07-20T07:43:35;26.70;53.80
57660;DHT22;43485;45.680;15.702;2023-07-20T07:46:01;26.80;53.70
57660;DHT22;43485;45.680;15.702;2023-07-20T07:48:27;27.00;53.20
57660;DHT22;43485;45.680;15.702;2023-07-20T07:50:53;27.10;52.20
57660;DHT22;43485;45.680;15.702;2023-07-20T07:53:19;27.30;51.60
57660;DHT22;43485;45.680;15.702;2023-07-20T07:58:32;27.80;51.90
57660;DHT22;43485;45.680;15.702;2023-07-20T08:00:58;28.10;51.80
57660;DHT22;43485;45.680;15.702;2023-07-20T08:03:24;28.30;51.20
57660;DHT22;43485;45.680;15.702;2023-07-20T08:05:53;28.40;50.60
57660;DHT22;43485;45.680;15.702;2023-07-20T08:08:20;28.50;50.80
57660;DHT22;43485;45.680;15.702;2023-07-20T08:10:47;28.60;50.70
57660;DHT22;43485;45.680;15.702;2023-07-20T08:13:13;28.70;51.30
57660;DHT22;43485;45.680;15.702;2023-07-20T08:15:41;28.70;51.30
57660;DHT22;43485;45.680;15.702;2023-07-20T08:18:11;28.80;51.10
57660;DHT22;43485;45.680;15.702;2023-07-20T08:20:37;28.80;51.30
57660;DHT22;43485;45.680;15.702;2023-07-20T08:23:03;28.80;50.90
57660;DHT22;43485;45.680;15.702;2023-07-20T08:25:29;28.90;49.90
57660;DHT22;43485;45.680;15.702;2023-07-20T08:27:55;28.80;50.20
57660;DHT22;43485;45.680;15.702;2023-07-20T08:30:21;29.00;50.30
57660;DHT22;43485;45.680;15.702;2023-07-20T08:32:48;29.10;50.20
57660;DHT22;43485;45.680;15.702;2023-07-20T08:35:14;29.20;49.30
57660;DHT22;43485;45.680;15.702;2023-07-20T08:37:41;29.20;48.80
57660;DHT22;43485;45.680;15.702;2023-07-20T08:40:07;29.20;48.10
57660;DHT22;43485;45.680;15.702;2023-07-20T08:42:34;29.30;47.20
57660;DHT22;43485;45.680;15.702;2023-07-20T08:45:01;29.30;46.60
57660;DHT22;43485;45.680;15.702;2023-07-20T08:47:31;29.40;47.30
57660;DHT22;43485;45.680;15.702;2023-07-20T08:49:57;29.50;47.50
57660;DHT22;43485;45.680;15.702;2023-07-20T08:52:24;29.70;47.00
57660;DHT22;43485;45.680;15.702;2023-07-20T08:54:51;30.00;46.60
57660;DHT22;43485;45.680;15.702;2023-07-20T08:57:18;30.30;46.90
57660;DHT22;43485;45.680;15.702;2023-07-20T08:59:47;30.70;44.40
57660;DHT22;43485;45.680;15.702;2023-07-20T09:02:14;31.10;45.30
57660;DHT22;43485;45.680;15.702;2023-07-20T09:04:43;31.70;43.60
57660;DHT22;43485;45.680;15.702;2023-07-20T09:07:09;32.40;43.00
57660;DHT22;43485;45.680;15.702;2023-07-20T09:09:39;32.90;41.60
57660;DHT22;43485;45.680;15.702;2023-07-20T09:12:12;33.60;40.80
57660;DHT22;43485;45.680;15.702;2023-07-20T09:14:39;34.30;40.10
57660;DHT22;43485;45.680;15.702;2023-07-20T09:17:12;34.80;38.40
57660;DHT22;43485;45.680;15.702;2023-07-20T09:19:39;35.30;38.00
57660;DHT22;43485;45.680;15.702;2023-07-20T09:22:11;35.90;36.40
57660;DHT22;43485;45.680;15.702;2023-07-20T09:24:37;36.50;35.60
57660;DHT22;43485;45.680;15.702;2023-07-20T09:27:03;37.20;34.50
57660;DHT22;43485;45.680;15.702;2023-07-20T09:29:29;37.70;32.50
57660;DHT22;43485;45.680;15.702;2023-07-20T09:34:43;38.90;28.50
57660;DHT22;43485;45.680;15.702;2023-07-20T09:37:09;39.40;30.20
57660;DHT22;43485;45.680;15.702;2023-07-20T09:39:41;40.00;28.80
57660;DHT22;43485;45.680;15.702;2023-07-20T09:42:26;40.70;28.20
57660;DHT22;43485;45.680;15.702;2023-07-20T09:44:52;41.10;25.90
57660;DHT22;43485;45.680;15.702;2023-07-20T09:50:03;42.50;25.70
57660;DHT22;43485;45.680;15.702;2023-07-20T09:52:30;43.20;25.60
57660;DHT22;43485;45.680;15.702;2023-07-20T09:54:57;43.60;23.50
57660;DHT22;43485;45.680;15.702;2023-07-20T09:57:23;44.00;23.00
57660;DHT22;43485;45.680;15.702;2023-07-20T09:59:49;44.50;22.90
57660;DHT22;43485;45.680;15.702;2023-07-20T10:05:01;45.60;21.30
57660;DHT22;43485;45.680;15.702;2023-07-20T10:07:30;46.00;20.90
57660;DHT22;43485;45.680;15.702;2023-07-20T10:09:56;46.50;20.40
57660;DHT22;43485;45.680;15.702;2023-07-20T10:12:25;47.00;20.00
57660;DHT22;43485;45.680;15.702;2023-07-20T10:17:40;48.10;19.80
57660;DHT22;43485;45.680;15.702;2023-07-20T10:20:16;48.30;19.00
57660;DHT22;43485;45.680;15.702;2023-07-20T10:22:42;48.50;18.70
57660;DHT22;43485;45.680;15.702;2023-07-20T10:25:09;48.90;18.10
57660;DHT22;43485;45.680;15.702;2023-07-20T10:27:35;49.30;18.40
57660;DHT22;43485;45.680;15.702;2023-07-20T10:30:01;49.70;17.50
57660;DHT22;43485;45.680;15.702;2023-07-20T10:32:29;49.40;16.90
57660;DHT22;43485;45.680;15.702;2023-07-20T10:34:55;49.40;17.10
57660;DHT22;43485;45.680;15.702;2023-07-20T10:43:09;50.60;15.60
57660;DHT22;43485;45.680;15.702;2023-07-20T10:48:03;51.20;16.00
57660;DHT22;43485;45.680;15.702;2023-07-20T10:50:30;51.60;15.90
57660;DHT22;43485;45.680;15.702;2023-07-20T10:55:43;52.70;15.10
57660;DHT22;43485;45.680;15.702;2023-07-20T11:03:39;53.60;14.20
57660;DHT22;43485;45.680;15.702;2023-07-20T11:09:09;53.50;12.70
57660;DHT22;43485;45.680;15.702;2023-07-20T11:11:38;52.70;14.00
57660;DHT22;43485;45.680;15.702;2023-07-20T11:14:06;52.40;14.20
57660;DHT22;43485;45.680;15.702;2023-07-20T11:22:03;54.30;13.20
57660;DHT22;43485;45.680;15.702;2023-07-20T11:24:33;54.60;12.50
57660;DHT22;43485;45.680;15.702;2023-07-20T11:26:59;54.90;12.20
57660;DHT22;43485;45.680;15.702;2023-07-20T11:29:26;55.30;12.60
57660;DHT22;43485;45.680;15.702;2023-07-20T11:31:52;55.00;11.80
57660;DHT22;43485;45.680;15.702;2023-07-20T11:34:19;55.10;12.20
57660;DHT22;43485;45.680;15.702;2023-07-20T11:36:49;55.30;12.30
57660;DHT22;43485;45.680;15.702;2023-07-20T11:39:17;55.90;11.50
57660;DHT22;43485;45.680;15.702;2023-07-20T11:42:02;56.30;11.70
57660;DHT22;43485;45.680;15.702;2023-07-20T11:44:30;56.40;10.90
57660;DHT22;43485;45.680;15.702;2023-07-20T11:49:41;56.60;11.20
57660;DHT22;43485;45.680;15.702;2023-07-20T11:54:54;57.20;11.30
57660;DHT22;43485;45.680;15.702;2023-07-20T11:57:21;57.50;11.30
57660;DHT22;43485;45.680;15.702;2023-07-20T12:02:34;58.00;10.70
57660;DHT22;43485;45.680;15.702;2023-07-20T12:05:01;57.70;9.60
57660;DHT22;43485;45.680;15.702;2023-07-20T12:07:28;58.00;11.10
57660;DHT22;43485;45.680;15.702;2023-07-20T12:12:39;58.00;10.30
57660;DHT22;43485;45.680;15.702;2023-07-20T12:15:25;57.90;10.60
57660;DHT22;43485;45.680;15.702;2023-07-20T12:17:52;58.30;10.30
57660;DHT22;43485;45.680;15.702;2023-07-20T12:25:48;58.80;10.00
57660;DHT22;43485;45.680;15.702;2023-07-20T12:28:15;58.80;9.40
57660;DHT22;43485;45.680;15.702;2023-07-20T12:30:45;59.00;10.30
57660;DHT22;43485;45.680;15.702;2023-07-20T12:33:12;59.30;9.60
57660;DHT22;43485;45.680;15.702;2023-07-20T12:35:41;59.40;10.30
57660;DHT22;43485;45.680;15.702;2023-07-20T12:38:08;59.30;10.00
57660;DHT22;43485;45.680;15.702;2023-07-20T12:40:34;58.40;9.60
57660;DHT22;43485;45.680;15.702;2023-07-20T12:43:01;57.00;10.70
57660;DHT22;43485;45.680;15.702;2023-07-20T12:45:27;56.10;11.10
57660;DHT22;43485;45.680;15.702;2023-07-20T12:47:53;56.30;11.90
57660;DHT22;43485;45.680;15.702;2023-07-20T12:50:19;57.20;10.90
57660;DHT22;43485;45.680;15.702;2023-07-20T12:52:45;57.70;10.60
57660;DHT22;43485;45.680;15.702;2023-07-20T12:55:11;58.30;11.30
57660;DHT22;43485;45.680;15.702;2023-07-20T12:57:37;58.00;11.00
57660;DHT22;43485;45.680;15.702;2023-07-20T13:00:04;57.00;11.50
57660;DHT22;43485;45.680;15.702;2023-07-20T13:02:33;57.50;11.00
57660;DHT22;43485;45.680;15.702;2023-07-20T13:04:59;57.30;11.50
57660;DHT22;43485;45.680;15.702;2023-07-20T13:10:10;57.70;11.10
57660;DHT22;43485;45.680;15.702;2023-07-20T13:12:37;58.30;11.10
57660;DHT22;43485;45.680;15.702;2023-07-20T13:15:04;58.70;10.60
57660;DHT22;43485;45.680;15.702;2023-07-20T13:20:17;55.60;11.30
57660;DHT22;43485;45.680;15.702;2023-07-20T13:22:43;54.20;12.20
57660;DHT22;43485;45.680;15.702;2023-07-20T13:25:09;53.80;11.60
57660;DHT22;43485;45.680;15.702;2023-07-20T13:27:35;52.80;12.70
57660;DHT22;43485;45.680;15.702;2023-07-20T13:30:02;53.50;12.70
57660;DHT22;43485;45.680;15.702;2023-07-20T13:32:33;53.80;12.40
57660;DHT22;43485;45.680;15.702;2023-07-20T13:34:59;54.50;12.40
57660;DHT22;43485;45.680;15.702;2023-07-20T13:37:25;52.70;10.70
57660;DHT22;43485;45.680;15.702;2023-07-20T13:39:52;51.60;12.40
57660;DHT22;43485;45.680;15.702;2023-07-20T13:42:18;51.40;13.00
57660;DHT22;43485;45.680;15.702;2023-07-20T13:44:44;51.80;12.10
57660;DHT22;43485;45.680;15.702;2023-07-20T13:47:11;52.70;12.80
57660;DHT22;43485;45.680;15.702;2023-07-20T13:49:37;53.40;13.10
57660;DHT22;43485;45.680;15.702;2023-07-20T13:52:03;53.80;12.70
57660;DHT22;43485;45.680;15.702;2023-07-20T13:54:29;53.40;11.40
57660;DHT22;43485;45.680;15.702;2023-07-20T13:56:55;52.90;12.80
57660;DHT22;43485;45.680;15.702;2023-07-20T13:59:22;51.70;13.30
57660;DHT22;43485;45.680;15.702;2023-07-20T14:01:48;50.40;14.10
57660;DHT22;43485;45.680;15.702;2023-07-20T14:04:14;49.00;15.60
57660;DHT22;43485;45.680;15.702;2023-07-20T14:06:40;47.90;16.50
57660;DHT22;43485;45.680;15.702;2023-07-20T14:09:06;46.80;17.00
57660;DHT22;43485;45.680;15.702;2023-07-20T14:11:32;45.80;17.60
57660;DHT22;43485;45.680;15.702;2023-07-20T14:13:58;45.10;18.30
57660;DHT22;43485;45.680;15.702;2023-07-20T14:16:24;44.40;19.00
57660;DHT22;43485;45.680;15.702;2023-07-20T14:18:50;43.80;19.10
57660;DHT22;43485;45.680;15.702;2023-07-20T14:21:17;43.30;19.30
57660;DHT22;43485;45.680;15.702;2023-07-20T14:23:45;42.70;18.70
57660;DHT22;43485;45.680;15.702;2023-07-20T14:26:12;42.20;19.70
57660;DHT22;43485;45.680;15.702;2023-07-20T14:28:38;41.70;19.50
57660;DHT22;43485;45.680;15.702;2023-07-20T14:31:04;41.30;20.80
57660;DHT22;43485;45.680;15.702;2023-07-20T14:33:30;41.20;21.50
57660;DHT22;43485;45.680;15.702;2023-07-20T14:35:56;41.10;21.60
57660;DHT22;43485;45.680;15.702;2023-07-20T14:38:23;40.80;21.20
57660;DHT22;43485;45.680;15.702;2023-07-20T14:40:49;40.50;21.70
57660;DHT22;43485;45.680;15.702;2023-07-20T14:43:14;40.40;22.20
57660;DHT22;43485;45.680;15.702;2023-07-20T14:45:40;40.10;22.30
57660;DHT22;43485;45.680;15.702;2023-07-20T14:48:07;39.80;21.70
57660;DHT22;43485;45.680;15.702;2023-07-20T14:50:33;39.70;22.90
57660;DHT22;43485;45.680;15.702;2023-07-20T14:52:59;39.50;23.10
57660;DHT22;43485;45.680;15.702;2023-07-20T14:55:25;39.30;23.30
57660;DHT22;43485;45.680;15.702;2023-07-20T14:57:51;39.10;23.80
57660;DHT22;43485;45.680;15.702;2023-07-20T15:00:17;39.00;24.00
57660;DHT22;43485;45.680;15.702;2023-07-20T15:02:45;38.70;23.80
57660;DHT22;43485;45.680;15.702;2023-07-20T15:05:11;38.50;24.50
57660;DHT22;43485;45.680;15.702;2023-07-20T15:07:37;38.40;24.40
57660;DHT22;43485;45.680;15.702;2023-07-20T15:10:03;38.30;24.50
57660;DHT22;43485;45.680;15.702;2023-07-20T15:12:30;38.20;24.70
57660;DHT22;43485;45.680;15.702;2023-07-20T15:17:42;37.80;24.70
57660;DHT22;43485;45.680;15.702;2023-07-20T15:20:09;37.60;24.80
57660;DHT22;43485;45.680;15.702;2023-07-20T15:22:36;37.50;24.90
57660;DHT22;43485;45.680;15.702;2023-07-20T15:25:04;37.50;24.90
57660;DHT22;43485;45.680;15.702;2023-07-20T15:27:32;37.30;25.50
57660;DHT22;43485;45.680;15.702;2023-07-20T15:29:58;37.30;25.40
57660;DHT22;43485;45.680;15.702;2023-07-20T15:32:24;37.30;25.80
57660;DHT22;43485;45.680;15.702;2023-07-20T15:34:50;37.10;25.90
57660;DHT22;43485;45.680;15.702;2023-07-20T15:37:16;37.10;25.80
57660;DHT22;43485;45.680;15.702;2023-07-20T15:39:42;36.90;25.60
57660;DHT22;43485;45.680;15.702;2023-07-20T15:42:08;36.80;25.80
57660;DHT22;43485;45.680;15.702;2023-07-20T15:44:34;36.60;26.10
57660;DHT22;43485;45.680;15.702;2023-07-20T15:47:00;36.50;26.20
57660;DHT22;43485;45.680;15.702;2023-07-20T15:49:26;36.40;26.30
57660;DHT22;43485;45.680;15.702;2023-07-20T15:51:53;36.30;26.40
57660;DHT22;43485;45.680;15.702;2023-07-20T15:54:19;36.20;26.20
57660;DHT22;43485;45.680;15.702;2023-07-20T15:56:45;36.10;26.60
57660;DHT22;43485;45.680;15.702;2023-07-20T15:59:12;36.00;26.90
57660;DHT22;43485;45.680;15.702;2023-07-20T16:01:38;35.80;26.60
57660;DHT22;43485;45.680;15.702;2023-07-20T16:04:05;35.80;26.50
57660;DHT22;43485;45.680;15.702;2023-07-20T16:06:31;35.70;26.70
57660;DHT22;43485;45.680;15.702;2023-07-20T16:08:58;35.70;26.40
57660;DHT22;43485;45.680;15.702;2023-07-20T16:11:24;35.60;27.30
57660;DHT22;43485;45.680;15.702;2023-07-20T16:13:50;35.50;27.60
57660;DHT22;43485;45.680;15.702;2023-07-20T16:16:17;35.40;27.60
57660;DHT22;43485;45.680;15.702;2023-07-20T16:18:43;35.30;27.60
57660;DHT22;43485;45.680;15.702;2023-07-20T16:21:10;35.10;27.90
57660;DHT22;43485;45.680;15.702;2023-07-20T16:23:36;35.00;28.60
57660;DHT22;43485;45.680;15.702;2023-07-20T16:26:02;35.00;28.50
57660;DHT22;43485;45.680;15.702;2023-07-20T16:28:28;34.90;28.20
57660;DHT22;43485;45.680;15.702;2023-07-20T16:30:55;34.80;28.80
57660;DHT22;43485;45.680;15.702;2023-07-20T16:33:22;34.80;28.50
57660;DHT22;43485;45.680;15.702;2023-07-20T16:35:47;34.70;29.10
57660;DHT22;43485;45.680;15.702;2023-07-20T16:38:13;34.60;29.10
57660;DHT22;43485;45.680;15.702;2023-07-20T16:40:40;34.50;29.20
57660;DHT22;43485;45.680;15.702;2023-07-20T16:43:05;34.40;29.00